Página principal
METAR-TAF:

METAR-TAF

Aeroportos :

Bagdá, Iraque

Aeroporto Internacional de Bagdad

latitude: 33-15-45N, longitude: 44-14-04E, altura: 35 m

Observação actual do tempo

O boletim foi feito há 20 minutos, às 15:00 UTC
Vento 5 kt de nor-noroeste
Temperatura 14°C
Humidade 44%
Pressão 1021 hPa
Visibilidade 10 km ou mais
sem nuvens abaixo de 1500 metros e sem cumulonimbus

METAR: ORBI 161500Z 33005KT CAVOK 14/02 Q1021 NOSIG

Hora: 18:20 (15:20 UTC)

Previsão

O boletim foi feito há 5 horas e 20 minutos, às 10:00 UTC
Previsão válida de 16 às 12 UTC a 17 às 12 UTC
Vento 6 kt de oes-noroeste
Visibilidade 10 km ou mais
sem nuvens abaixo de 1500 metros e sem cumulonimbus

TAF: ORBI 161000Z 1612/1712 30006KT CAVOK

Observações e previsões do tempo de mais de 4000 aeroportos (mensagens METAR e TAF).

As estações disponíveis são os pontos amarelos e vermelhos sobre o mapa.

Mova o rato sobre o mapa para ver o nome da estação.

Depois clique no ponto para visualizar as observações e previsões meteorológicas.

Para alterar o mapa : clique nos botões verdes com uma cruz preta para aumentar o zoom; no botão verde com uma pitada de zoom; ou nas setas verdes para mapas adjacentes.


METAR-TAF: